sensor_id;sensor_type;location;lat;lon;timestamp;P1;durP1;ratioP1;P2;durP2;ratioP2
53939;SDS011;39850;43.324;21.916;2022-11-15T00:26:31;14.0;;;14.0;;
53939;SDS011;39850;43.324;21.916;2022-11-15T00:31:15;14.0;;;14.0;;
53939;SDS011;39850;43.324;21.916;2022-11-15T00:35:51;14.0;;;14.0;;
53939;SDS011;39850;43.324;21.916;2022-11-15T00:40:30;14.0;;;14.0;;
53939;SDS011;39850;43.324;21.916;2022-11-15T00:45:10;14.0;;;14.0;;
53939;SDS011;39850;43.324;21.916;2022-11-15T00:49:46;14.0;;;14.0;;
53939;SDS011;39850;43.324;21.916;2022-11-15T00:54:23;14.0;;;14.0;;
53939;SDS011;39850;43.324;21.916;2022-11-15T00:58:59;14.0;;;13.0;;
53939;SDS011;39850;43.324;21.916;2022-11-15T01:03:41;14.0;;;13.0;;
53939;SDS011;39850;43.324;21.916;2022-11-15T01:59:46;14.0;;;14.0;;
53939;SDS011;39850;43.324;21.916;2022-11-15T02:04:36;14.0;;;14.0;;
53939;SDS011;39850;43.324;21.916;2022-11-15T02:09:19;14.0;;;14.0;;
53939;SDS011;39850;43.324;21.916;2022-11-15T02:14:03;14.0;;;14.0;;
53939;SDS011;39850;43.324;21.916;2022-11-15T02:19:17;14.0;;;14.0;;
53939;SDS011;39850;43.324;21.916;2022-11-15T02:25:29;14.0;;;14.0;;
53939;SDS011;39850;43.324;21.916;2022-11-15T03:20:19;19.0;;;18.0;;
53939;SDS011;39850;43.324;21.916;2022-11-15T03:25:08;19.0;;;18.0;;
53939;SDS011;39850;43.324;21.916;2022-11-15T03:30:05;19.0;;;18.0;;
53939;SDS011;39850;43.324;21.916;2022-11-15T03:35:02;19.0;;;18.0;;
53939;SDS011;39850;43.324;21.916;2022-11-15T03:39:48;19.0;;;18.0;;
53939;SDS011;39850;43.324;21.916;2022-11-15T03:44:50;19.0;;;18.0;;
53939;SDS011;39850;43.324;21.916;2022-11-15T06:09:24;32.0;;;29.0;;
53939;SDS011;39850;43.324;21.916;2022-11-15T06:14:01;32.0;;;29.0;;
53939;SDS011;39850;43.324;21.916;2022-11-15T06:18:38;32.0;;;29.0;;
53939;SDS011;39850;43.324;21.916;2022-11-15T06:23:15;32.0;;;29.0;;
53939;SDS011;39850;43.324;21.916;2022-11-15T06:27:55;32.0;;;29.0;;
53939;SDS011;39850;43.324;21.916;2022-11-15T06:32:34;32.0;;;29.0;;
53939;SDS011;39850;43.324;21.916;2022-11-15T07:18:48;39.0;;;36.0;;
53939;SDS011;39850;43.324;21.916;2022-11-15T07:23:25;39.0;;;36.0;;
53939;SDS011;39850;43.324;21.916;2022-11-15T07:28:03;39.0;;;35.0;;
53939;SDS011;39850;43.324;21.916;2022-11-15T07:32:40;39.0;;;35.0;;
53939;SDS011;39850;43.324;21.916;2022-11-15T07:37:18;39.0;;;35.0;;
53939;SDS011;39850;43.324;21.916;2022-11-15T07:41:55;39.0;;;35.0;;
53939;SDS011;39850;43.324;21.916;2022-11-15T07:46:32;39.0;;;35.0;;
53939;SDS011;39850;43.324;21.916;2022-11-15T07:51:13;39.0;;;34.0;;
53939;SDS011;39850;43.324;21.916;2022-11-15T07:55:52;39.0;;;34.0;;
53939;SDS011;39850;43.324;21.916;2022-11-15T08:28:12;35.0;;;32.0;;
53939;SDS011;39850;43.324;21.916;2022-11-15T08:32:55;35.0;;;32.0;;
53939;SDS011;39850;43.324;21.916;2022-11-15T08:37:33;36.0;;;33.0;;
53939;SDS011;39850;43.324;21.916;2022-11-15T08:42:10;36.0;;;33.0;;
53939;SDS011;39850;43.324;21.916;2022-11-15T08:46:47;36.0;;;33.0;;
53939;SDS011;39850;43.324;21.916;2022-11-15T08:51:24;35.0;;;32.0;;
53939;SDS011;39850;43.324;21.916;2022-11-15T08:56:07;35.0;;;32.0;;
53939;SDS011;39850;43.324;21.916;2022-11-15T09:00:47;36.0;;;32.0;;
53939;SDS011;39850;43.324;21.916;2022-11-15T09:05:25;36.0;;;32.0;;
53939;SDS011;39850;43.324;21.916;2022-11-15T09:10:03;35.0;;;31.0;;
53939;SDS011;39850;43.324;21.916;2022-11-15T09:14:41;35.0;;;31.0;;
53939;SDS011;39850;43.324;21.916;2022-11-15T09:48:56;37.0;;;34.0;;
53939;SDS011;39850;43.324;21.916;2022-11-15T09:53:59;37.0;;;34.0;;
53939;SDS011;39850;43.324;21.916;2022-11-15T09:59:16;35.0;;;32.0;;
53939;SDS011;39850;43.324;21.916;2022-11-15T10:04:02;35.0;;;32.0;;
53939;SDS011;39850;43.324;21.916;2022-11-15T10:09:11;33.0;;;30.0;;
53939;SDS011;39850;43.324;21.916;2022-11-15T10:14:11;33.0;;;30.0;;
53939;SDS011;39850;43.324;21.916;2022-11-15T10:19:27;32.0;;;30.0;;
53939;SDS011;39850;43.324;21.916;2022-11-15T10:24:34;32.0;;;30.0;;
53939;SDS011;39850;43.324;21.916;2022-11-15T10:29:21;32.0;;;30.0;;
53939;SDS011;39850;43.324;21.916;2022-11-15T10:34:18;32.0;;;30.0;;
53939;SDS011;39850;43.324;21.916;2022-11-15T11:13:26;28.0;;;26.0;;
53939;SDS011;39850;43.324;21.916;2022-11-15T11:18:32;29.0;;;28.0;;
53939;SDS011;39850;43.324;21.916;2022-11-15T11:23:52;29.0;;;28.0;;
53939;SDS011;39850;43.324;21.916;2022-11-15T11:29:20;30.0;;;29.0;;
53939;SDS011;39850;43.324;21.916;2022-11-15T11:35:05;30.0;;;29.0;;
53939;SDS011;39850;43.324;21.916;2022-11-15T11:40:30;32.0;;;30.0;;
53939;SDS011;39850;43.324;21.916;2022-11-15T11:46:06;32.0;;;30.0;;
53939;SDS011;39850;43.324;21.916;2022-11-15T11:51:40;34.0;;;31.0;;
53939;SDS011;39850;43.324;21.916;2022-11-15T11:56:39;34.0;;;31.0;;
53939;SDS011;39850;43.324;21.916;2022-11-15T12:41:27;36.0;;;33.0;;
53939;SDS011;39850;43.324;21.916;2022-11-15T12:47:01;36.0;;;33.0;;
53939;SDS011;39850;43.324;21.916;2022-11-15T12:52:10;38.0;;;34.0;;
53939;SDS011;39850;43.324;21.916;2022-11-15T12:57:42;38.0;;;34.0;;
53939;SDS011;39850;43.324;21.916;2022-11-15T13:02:28;38.0;;;34.0;;
53939;SDS011;39850;43.324;21.916;2022-11-15T13:07:59;38.0;;;34.0;;
53939;SDS011;39850;43.324;21.916;2022-11-15T13:12:59;39.0;;;35.0;;
53939;SDS011;39850;43.324;21.916;2022-11-15T13:17:46;39.0;;;35.0;;
53939;SDS011;39850;43.324;21.916;2022-11-15T14:00:41;51.0;;;45.0;;
53939;SDS011;39850;43.324;21.916;2022-11-15T14:05:25;51.0;;;45.0;;
53939;SDS011;39850;43.324;21.916;2022-11-15T14:10:30;64.0;;;56.0;;
53939;SDS011;39850;43.324;21.916;2022-11-15T14:15:34;64.0;;;56.0;;
53939;SDS011;39850;43.324;21.916;2022-11-15T14:20:37;64.0;;;56.0;;
53939;SDS011;39850;43.324;21.916;2022-11-15T14:25:22;64.0;;;56.0;;
53939;SDS011;39850;43.324;21.916;2022-11-15T14:30:11;77.0;;;67.0;;
53939;SDS011;39850;43.324;21.916;2022-11-15T14:35:01;77.0;;;67.0;;
53939;SDS011;39850;43.324;21.916;2022-11-15T15:21:35;48.0;;;42.0;;
53939;SDS011;39850;43.324;21.916;2022-11-15T15:26:11;48.0;;;42.0;;
53939;SDS011;39850;43.324;21.916;2022-11-15T15:30:48;50.0;;;42.0;;
53939;SDS011;39850;43.324;21.916;2022-11-15T15:35:34;50.0;;;42.0;;
53939;SDS011;39850;43.324;21.916;2022-11-15T15:40:21;50.0;;;42.0;;
53939;SDS011;39850;43.324;21.916;2022-11-15T15:45:02;50.0;;;42.0;;
53939;SDS011;39850;43.324;21.916;2022-11-15T15:49:40;53.0;;;43.0;;
53939;SDS011;39850;43.324;21.916;2022-11-15T15:54:17;53.0;;;43.0;;
53939;SDS011;39850;43.324;21.916;2022-11-15T16:41:09;321.0;;;235.0;;
53939;SDS011;39850;43.324;21.916;2022-11-15T16:45:49;321.0;;;235.0;;
53939;SDS011;39850;43.324;21.916;2022-11-15T16:50:34;262.0;;;197.0;;
53939;SDS011;39850;43.324;21.916;2022-11-15T16:55:11;262.0;;;197.0;;
53939;SDS011;39850;43.324;21.916;2022-11-15T16:59:48;262.0;;;197.0;;
53939;SDS011;39850;43.324;21.916;2022-11-15T17:04:24;262.0;;;197.0;;
53939;SDS011;39850;43.324;21.916;2022-11-15T17:09:01;262.0;;;197.0;;
53939;SDS011;39850;43.324;21.916;2022-11-15T17:13:38;204.0;;;159.0;;
53939;SDS011;39850;43.324;21.916;2022-11-15T17:18:15;204.0;;;159.0;;
53939;SDS011;39850;43.324;21.916;2022-11-15T17:59:56;228.0;;;173.0;;
53939;SDS011;39850;43.324;21.916;2022-11-15T18:04:32;228.0;;;173.0;;
53939;SDS011;39850;43.324;21.916;2022-11-15T18:09:09;228.0;;;173.0;;
53939;SDS011;39850;43.324;21.916;2022-11-15T18:13:54;232.0;;;176.0;;
53939;SDS011;39850;43.324;21.916;2022-11-15T18:18:35;232.0;;;176.0;;
53939;SDS011;39850;43.324;21.916;2022-11-15T18:23:12;232.0;;;176.0;;
53939;SDS011;39850;43.324;21.916;2022-11-15T18:27:51;232.0;;;176.0;;
53939;SDS011;39850;43.324;21.916;2022-11-15T18:32:28;235.0;;;178.0;;
53939;SDS011;39850;43.324;21.916;2022-11-15T18:37:05;235.0;;;178.0;;
53939;SDS011;39850;43.324;21.916;2022-11-15T19:09:44;107.0;;;83.0;;
53939;SDS011;39850;43.324;21.916;2022-11-15T19:14:21;107.0;;;83.0;;
53939;SDS011;39850;43.324;21.916;2022-11-15T19:19:06;107.0;;;83.0;;
53939;SDS011;39850;43.324;21.916;2022-11-15T19:23:45;89.0;;;71.0;;
53939;SDS011;39850;43.324;21.916;2022-11-15T19:28:22;89.0;;;71.0;;
53939;SDS011;39850;43.324;21.916;2022-11-15T19:32:59;78.0;;;60.0;;
53939;SDS011;39850;43.324;21.916;2022-11-15T19:37:36;78.0;;;60.0;;
53939;SDS011;39850;43.324;21.916;2022-11-15T19:42:13;74.0;;;60.0;;
53939;SDS011;39850;43.324;21.916;2022-11-15T19:46:49;74.0;;;60.0;;
53939;SDS011;39850;43.324;21.916;2022-11-15T19:51:29;78.0;;;60.0;;
53939;SDS011;39850;43.324;21.916;2022-11-15T19:56:16;78.0;;;60.0;;
53939;SDS011;39850;43.324;21.916;2022-11-15T20:33:27;68.0;;;58.0;;
53939;SDS011;39850;43.324;21.916;2022-11-15T20:38:06;68.0;;;58.0;;
53939;SDS011;39850;43.324;21.916;2022-11-15T20:42:42;68.0;;;59.0;;
53939;SDS011;39850;43.324;21.916;2022-11-15T20:47:19;68.0;;;59.0;;
53939;SDS011;39850;43.324;21.916;2022-11-15T20:51:56;69.0;;;60.0;;
53939;SDS011;39850;43.324;21.916;2022-11-15T20:56:33;69.0;;;60.0;;
53939;SDS011;39850;43.324;21.916;2022-11-15T21:01:16;128.0;;;103.0;;
53939;SDS011;39850;43.324;21.916;2022-11-15T21:05:56;128.0;;;103.0;;
53939;SDS011;39850;43.324;21.916;2022-11-15T21:10:34;188.0;;;146.0;;
53939;SDS011;39850;43.324;21.916;2022-11-15T21:15:10;188.0;;;146.0;;
53939;SDS011;39850;43.324;21.916;2022-11-15T21:19:47;188.0;;;146.0;;
53939;SDS011;39850;43.324;21.916;2022-11-15T22:01:21;191.0;;;150.0;;
53939;SDS011;39850;43.324;21.916;2022-11-15T22:06:01;191.0;;;150.0;;
53939;SDS011;39850;43.324;21.916;2022-11-15T22:10:38;208.0;;;164.0;;
53939;SDS011;39850;43.324;21.916;2022-11-15T22:15:15;208.0;;;164.0;;
53939;SDS011;39850;43.324;21.916;2022-11-15T22:19:52;208.0;;;164.0;;
53939;SDS011;39850;43.324;21.916;2022-11-15T22:24:29;208.0;;;164.0;;
53939;SDS011;39850;43.324;21.916;2022-11-15T22:29:07;208.0;;;164.0;;
53939;SDS011;39850;43.324;21.916;2022-11-15T22:33:44;225.0;;;177.0;;
53939;SDS011;39850;43.324;21.916;2022-11-15T22:38:24;225.0;;;177.0;;
53939;SDS011;39850;43.324;21.916;2022-11-15T23:10:45;210.0;;;164.0;;
53939;SDS011;39850;43.324;21.916;2022-11-15T23:15:22;210.0;;;164.0;;
53939;SDS011;39850;43.324;21.916;2022-11-15T23:19:58;210.0;;;164.0;;
53939;SDS011;39850;43.324;21.916;2022-11-15T23:24:35;203.0;;;157.0;;
53939;SDS011;39850;43.324;21.916;2022-11-15T23:29:19;203.0;;;157.0;;
53939;SDS011;39850;43.324;21.916;2022-11-15T23:34:00;196.0;;;150.0;;
53939;SDS011;39850;43.324;21.916;2022-11-15T23:38:37;196.0;;;150.0;;
53939;SDS011;39850;43.324;21.916;2022-11-15T23:43:14;182.0;;;142.0;;
53939;SDS011;39850;43.324;21.916;2022-11-15T23:47:51;182.0;;;142.0;;
53939;SDS011;39850;43.324;21.916;2022-11-15T23:52:28;169.0;;;135.0;;
53939;SDS011;39850;43.324;21.916;2022-11-15T23:57:05;169.0;;;135.0;;
